createdAt,value
2019-06-07T00:00:40.142Z,16.90
2019-06-07T00:03:44.175Z,16.90
2019-06-07T00:06:51.654Z,16.90
2019-06-07T00:09:59.163Z,16.80
2019-06-07T00:13:06.919Z,16.80
2019-06-07T00:16:19.118Z,16.80
2019-06-07T00:19:23.658Z,16.80
2019-06-07T00:22:33.423Z,16.80
2019-06-07T00:25:40.196Z,16.80
2019-06-07T00:28:47.764Z,16.80
2019-06-07T00:31:55.241Z,16.80
2019-06-07T00:35:04.352Z,16.90
2019-06-07T00:38:11.941Z,17.00
2019-06-07T00:41:22.216Z,17.00
2019-06-07T00:44:28.693Z,17.00
2019-06-07T00:47:36.223Z,17.00
2019-06-07T00:50:43.782Z,17.10
2019-06-07T00:53:51.300Z,17.10
2019-06-07T00:56:58.721Z,17.10
2019-06-07T01:00:07.308Z,17.00
2019-06-07T01:03:15.043Z,16.90
2019-06-07T01:06:24.934Z,16.70
2019-06-07T01:09:33.601Z,16.60
2019-06-07T01:12:41.055Z,16.50
2019-06-07T01:15:49.736Z,16.30
2019-06-07T01:18:57.174Z,16.30
2019-06-07T01:22:04.763Z,16.30
2019-06-07T01:25:12.602Z,16.40
2019-06-07T01:28:23.617Z,16.40
2019-06-07T01:31:31.473Z,16.50
2019-06-07T01:34:38.779Z,16.60
2019-06-07T01:37:46.278Z,16.70
2019-06-07T01:40:53.788Z,16.70
2019-06-07T01:44:01.251Z,16.70
2019-06-07T01:47:08.772Z,16.60
2019-06-07T01:50:17.077Z,16.60
2019-06-07T01:53:26.478Z,16.70
2019-06-07T01:56:34.524Z,16.80
2019-06-07T01:59:41.975Z,16.90
2019-06-07T02:02:49.513Z,16.90
2019-06-07T02:05:58.016Z,16.90
2019-06-07T02:09:07.680Z,16.90
2019-06-07T02:12:25.834Z,17.00
2019-06-07T02:15:27.571Z,17.00
2019-06-07T02:18:35.017Z,17.00
2019-06-07T02:21:42.733Z,17.00
2019-06-07T02:25:33.885Z,17.00
2019-06-07T02:28:25.853Z,16.90
2019-06-07T02:31:08.429Z,16.90
2019-06-07T02:34:15.874Z,16.90
2019-06-07T02:37:24.869Z,16.90
2019-06-07T02:40:37.326Z,16.90
2019-06-07T02:43:41.556Z,16.90
2019-06-07T02:46:49.911Z,16.90
2019-06-07T02:49:57.683Z,16.90
2019-06-07T02:53:05.123Z,16.90
2019-06-07T02:56:48.963Z,16.90
2019-06-07T02:59:47.258Z,16.90
2019-06-07T03:02:38.398Z,16.90
2019-06-07T03:05:43.050Z,17.00
2019-06-07T03:08:50.539Z,17.00
2019-06-07T03:12:00.495Z,17.10
2019-06-07T03:15:08.606Z,17.10
2019-06-07T03:18:36.661Z,17.10
2019-06-07T03:21:45.912Z,17.20
2019-06-07T03:24:54.815Z,17.20
2019-06-07T03:28:02.315Z,17.40
2019-06-07T03:31:09.762Z,17.50
2019-06-07T03:34:17.238Z,17.60
2019-06-07T03:37:24.638Z,17.80
2019-06-07T03:40:34.222Z,18.20
2019-06-07T03:43:41.109Z,18.70
2019-06-07T03:46:48.685Z,19.10
2019-06-07T03:49:56.137Z,19.40
2019-06-07T03:53:03.657Z,19.60
2019-06-07T03:56:12.012Z,19.70
2019-06-07T03:59:20.316Z,20.00
2019-06-07T04:02:27.903Z,20.20
2019-06-07T04:05:40.281Z,20.50
2019-06-07T04:08:44.511Z,20.80
2019-06-07T04:11:51.985Z,20.70
2019-06-07T04:14:59.432Z,20.50
2019-06-07T04:18:06.885Z,20.20
2019-06-07T04:21:14.407Z,19.80
2019-06-07T04:24:21.888Z,19.70
2019-06-07T04:27:30.624Z,19.40
2019-06-07T04:30:43.195Z,19.20
2019-06-07T04:33:51.313Z,19.10
2019-06-07T04:36:59.796Z,18.90
2019-06-07T04:40:07.586Z,18.90
2019-06-07T04:43:15.251Z,18.90
2019-06-07T04:46:24.331Z,19.00
2019-06-07T04:49:38.136Z,18.90
2019-06-07T04:52:45.390Z,18.90
2019-06-07T04:55:52.399Z,18.70
2019-06-07T04:58:59.957Z,18.70
2019-06-07T05:02:07.609Z,18.60
2019-06-07T05:05:15.143Z,18.50
2019-06-07T05:08:27.914Z,18.50
2019-06-07T05:11:33.361Z,18.50
2019-06-07T05:14:44.094Z,18.50
2019-06-07T05:17:51.161Z,18.40
2019-06-07T05:20:59.208Z,18.40
2019-06-07T05:24:10.378Z,18.50
2019-06-07T05:27:16.355Z,18.50
2019-06-07T05:33:51.642Z,18.60
2019-06-07T05:37:11.574Z,18.60
2019-06-07T05:40:08.817Z,18.70
2019-06-07T05:43:24.903Z,18.80
2019-06-07T05:46:33.895Z,19.00
2019-06-07T05:49:44.530Z,19.30
2019-06-07T05:52:50.633Z,19.40
2019-06-07T05:55:58.109Z,19.60
2019-06-07T05:59:05.647Z,19.80
2019-06-07T06:02:22.317Z,19.90
2019-06-07T06:05:33.785Z,20.00
2019-06-07T06:08:31.522Z,20.20
2019-06-07T06:11:52.452Z,20.40
2019-06-07T06:14:49.241Z,20.60
2019-06-07T06:17:57.038Z,20.90
2019-06-07T06:21:17.435Z,21.60
2019-06-07T06:24:13.732Z,22.10
2019-06-07T06:28:02.527Z,22.50
2019-06-07T06:30:30.345Z,22.70
2019-06-07T06:33:42.928Z,22.70
2019-06-07T06:36:52.122Z,22.60
2019-06-07T06:39:59.614Z,22.40
2019-06-07T06:43:07.152Z,22.20
2019-06-07T06:46:31.857Z,22.00
2019-06-07T06:49:23.927Z,21.90
2019-06-07T06:52:31.471Z,21.80
2019-06-07T06:55:39.154Z,21.80
2019-06-07T06:59:33.536Z,21.70
2019-06-07T07:01:55.858Z,21.90
2019-06-07T07:05:03.461Z,22.10
2019-06-07T07:08:12.834Z,22.20
2019-06-07T07:11:23.313Z,22.50
2019-06-07T07:14:29.515Z,23.00
2019-06-07T07:17:50.789Z,23.60
2019-06-07T07:20:48.243Z,23.80
2019-06-07T07:24:19.513Z,24.00
2019-06-07T07:27:04.333Z,24.20
2019-06-07T07:33:21.583Z,24.50
2019-06-07T07:36:39.551Z,24.70
2019-06-07T07:39:38.073Z,25.50
2019-06-07T07:42:47.620Z,26.70
2019-06-07T07:46:01.419Z,26.90
2019-06-07T07:49:03.997Z,26.90
2019-06-07T07:52:11.595Z,26.40
2019-06-07T07:55:19.095Z,26.70
2019-06-07T07:58:26.645Z,27.20
2019-06-07T08:01:34.096Z,27.70
2019-06-07T08:05:13.865Z,28.30
2019-06-07T08:07:55.435Z,28.70
2019-06-07T08:11:02.165Z,28.90
2019-06-07T08:14:08.915Z,28.50
2019-06-07T08:17:16.381Z,27.70
2019-06-07T08:20:23.935Z,27.20
2019-06-07T08:23:31.389Z,26.50
2019-06-07T08:26:38.861Z,25.90
2019-06-07T08:30:03.780Z,25.70
2019-06-07T08:33:23.881Z,24.40
2019-06-07T08:36:20.036Z,24.80
2019-06-07T08:39:17.188Z,24.50
2019-06-07T08:42:36.592Z,23.50
2019-06-07T08:45:33.946Z,23.10
2019-06-07T08:48:41.453Z,23.10
2019-06-07T08:51:52.559Z,22.50
2019-06-07T08:55:03.396Z,22.50
2019-06-07T08:58:08.713Z,22.70
2019-06-07T09:01:16.599Z,22.30
2019-06-07T09:04:24.067Z,22.20
2019-06-07T09:07:31.529Z,22.20
2019-06-07T09:10:39.004Z,22.20
2019-06-07T09:13:46.971Z,22.20
2019-06-07T09:17:00.428Z,22.00
2019-06-07T09:20:10.412Z,22.20
2019-06-07T09:23:17.112Z,22.50
2019-06-07T09:26:22.149Z,22.80
2019-06-07T09:29:29.954Z,22.50
2019-06-07T09:32:37.485Z,22.60
2019-06-07T09:35:45.286Z,22.60
2019-06-07T09:38:53.193Z,22.70
2019-06-07T09:42:01.639Z,23.30
2019-06-07T09:45:14.108Z,23.80
2019-06-07T09:49:08.600Z,24.10
2019-06-07T09:51:30.268Z,23.80
2019-06-07T09:57:46.857Z,23.00
2019-06-07T10:00:54.486Z,23.30
2019-06-07T10:04:04.697Z,23.20
2019-06-07T10:07:28.862Z,23.20
2019-06-07T10:13:29.874Z,24.30
2019-06-07T10:16:46.537Z,25.10
2019-06-07T10:19:46.409Z,25.90
2019-06-07T10:22:54.901Z,26.50
2019-06-07T10:26:04.055Z,27.20
2019-06-07T10:29:11.615Z,27.80
2019-06-07T10:32:20.114Z,28.10
2019-06-07T10:35:29.189Z,28.00
2019-06-07T10:38:36.709Z,27.90
2019-06-07T10:41:44.242Z,27.90
2019-06-07T10:44:51.764Z,28.20
2019-06-07T10:47:59.307Z,28.10
2019-06-07T10:51:08.586Z,27.90
2019-06-07T10:54:26.741Z,28.40
2019-06-07T10:57:25.398Z,28.60
2019-06-07T11:00:33.066Z,29.20
2019-06-07T11:03:40.643Z,29.60
2019-06-07T11:06:48.091Z,29.70
2019-06-07T11:10:06.289Z,29.70
2019-06-07T11:13:04.689Z,30.00
2019-06-07T11:16:13.052Z,29.70
2019-06-07T11:19:20.662Z,29.60
2019-06-07T11:22:28.237Z,30.00
2019-06-07T11:25:35.726Z,30.10
2019-06-07T11:28:43.313Z,30.30
2019-06-07T11:31:50.808Z,30.40
2019-06-07T11:34:58.418Z,30.80
2019-06-07T11:38:06.356Z,30.60
2019-06-07T11:41:13.839Z,30.30
2019-06-07T11:44:21.313Z,29.50
2019-06-07T11:47:28.830Z,28.50
2019-06-07T11:50:36.283Z,29.00
2019-06-07T11:53:43.886Z,28.90
2019-06-07T11:56:51.333Z,29.00
2019-06-07T11:59:58.818Z,29.30
2019-06-07T12:03:09.360Z,29.30
2019-06-07T12:06:18.009Z,29.10
2019-06-07T12:09:28.137Z,29.10
2019-06-07T12:12:35.852Z,29.10
2019-06-07T12:15:43.437Z,29.00
2019-06-07T12:18:50.975Z,29.30
2019-06-07T12:21:58.433Z,29.30
2019-06-07T12:25:06.200Z,29.10
2019-06-07T12:28:14.805Z,28.90
2019-06-07T12:31:23.331Z,28.60
2019-06-07T12:34:30.827Z,28.20
2019-06-07T12:37:44.455Z,28.00
2019-06-07T12:40:57.330Z,27.90
2019-06-07T12:43:59.160Z,27.40
2019-06-07T12:47:06.099Z,27.00
2019-06-07T12:50:15.272Z,26.90
2019-06-07T12:53:26.630Z,26.60
2019-06-07T12:56:32.155Z,26.70
2019-06-07T12:59:40.199Z,26.50
2019-06-07T13:02:47.875Z,26.60
2019-06-07T13:05:55.315Z,26.40
2019-06-07T13:09:03.282Z,26.30
2019-06-07T13:12:11.521Z,26.30
2019-06-07T13:15:21.607Z,26.20
2019-06-07T13:18:28.630Z,26.10
2019-06-07T13:21:39.180Z,26.00
2019-06-07T13:24:46.750Z,25.90
2019-06-07T13:27:54.296Z,25.90
2019-06-07T13:31:01.810Z,25.70
2019-06-07T13:34:09.458Z,25.70
2019-06-07T13:37:17.052Z,25.70
2019-06-07T13:40:25.233Z,25.90
2019-06-07T13:43:32.905Z,26.00
2019-06-07T13:46:40.448Z,26.00
2019-06-07T13:49:47.991Z,25.90
2019-06-07T13:52:55.583Z,25.90
2019-06-07T13:56:03.092Z,25.90
2019-06-07T13:59:10.520Z,26.00
2019-06-07T14:02:18.596Z,26.20
2019-06-07T14:05:27.300Z,26.10
2019-06-07T14:08:34.913Z,26.20
2019-06-07T14:11:50.487Z,26.30
2019-06-07T14:14:51.570Z,26.40
2019-06-07T14:17:59.111Z,26.50
2019-06-07T14:21:06.642Z,26.40
2019-06-07T14:24:14.187Z,26.10
2019-06-07T14:27:21.645Z,25.80
2019-06-07T14:30:30.622Z,25.70
2019-06-07T14:33:38.433Z,25.80
2019-06-07T14:36:45.909Z,25.80
2019-06-07T14:39:53.382Z,25.80
2019-06-07T14:43:00.892Z,25.80
2019-06-07T14:46:08.482Z,25.60
2019-06-07T14:49:16.017Z,25.60
2019-06-07T14:52:24.405Z,25.60
2019-06-07T14:55:32.979Z,25.60
2019-06-07T14:58:43.486Z,25.70
2019-06-07T15:01:49.888Z,25.70
2019-06-07T15:04:58.130Z,25.70
2019-06-07T15:08:06.049Z,25.70
2019-06-07T15:11:13.673Z,25.60
2019-06-07T15:14:21.359Z,25.60
2019-06-07T15:17:28.996Z,25.50
2019-06-07T15:20:38.164Z,25.30
2019-06-07T15:23:46.225Z,25.20
2019-06-07T15:26:53.947Z,25.30
2019-06-07T15:30:09.443Z,25.30
2019-06-07T15:33:10.731Z,25.30
2019-06-07T15:36:18.193Z,25.30
2019-06-07T15:39:26.010Z,25.40
2019-06-07T15:42:53.105Z,25.50
2019-06-07T15:46:05.543Z,25.50
2019-06-07T15:49:13.648Z,25.60
2019-06-07T15:52:21.223Z,25.60
2019-06-07T15:55:28.894Z,25.50
2019-06-07T15:58:37.215Z,25.50
2019-06-07T16:01:44.915Z,25.50
2019-06-07T16:04:52.527Z,25.50
2019-06-07T16:08:00.438Z,25.50
2019-06-07T16:11:07.946Z,25.40
2019-06-07T16:14:15.730Z,25.50
2019-06-07T16:17:23.415Z,25.40
2019-06-07T16:20:31.140Z,25.40
2019-06-07T16:23:39.742Z,25.40
2019-06-07T16:26:48.446Z,25.30
2019-06-07T16:29:56.100Z,25.30
2019-06-07T16:33:03.662Z,25.30
2019-06-07T16:36:11.240Z,25.40
2019-06-07T16:39:18.926Z,25.30
2019-06-07T16:42:26.374Z,25.40
2019-06-07T16:45:34.118Z,25.30
2019-06-07T16:48:42.812Z,25.30
2019-06-07T16:51:50.781Z,25.20
2019-06-07T16:54:58.570Z,25.20
2019-06-07T16:58:06.120Z,25.20
2019-06-07T17:01:13.597Z,25.20
2019-06-07T17:04:21.309Z,25.10
2019-06-07T17:07:29.358Z,25.00
2019-06-07T17:10:38.115Z,24.90
2019-06-07T17:13:46.463Z,24.90
2019-06-07T17:16:54.393Z,24.90
2019-06-07T17:20:02.366Z,24.90
2019-06-07T17:23:09.785Z,25.00
2019-06-07T17:26:17.353Z,25.00
2019-06-07T17:29:25.201Z,25.00
2019-06-07T17:32:47.657Z,24.90
2019-06-07T17:35:44.525Z,25.00
2019-06-07T17:38:52.032Z,24.90
2019-06-07T17:42:02.035Z,24.80
2019-06-07T17:45:10.196Z,24.80
2019-06-07T17:48:17.801Z,24.60
2019-06-07T17:51:25.967Z,24.50
2019-06-07T17:54:33.583Z,24.40
2019-06-07T17:57:42.259Z,24.40
2019-06-07T18:00:51.334Z,24.30
2019-06-07T18:03:58.785Z,24.20
2019-06-07T18:07:06.866Z,24.10
2019-06-07T18:10:15.810Z,24.10
2019-06-07T18:13:23.272Z,24.00
2019-06-07T18:16:31.164Z,23.90
2019-06-07T18:19:38.788Z,23.80
2019-06-07T18:22:47.029Z,23.80
2019-06-07T18:25:54.854Z,23.70
2019-06-07T18:29:02.534Z,23.70
2019-06-07T18:32:13.378Z,23.60
2019-06-07T18:35:19.062Z,23.50
2019-06-07T18:38:26.528Z,23.50
2019-06-07T18:41:35.234Z,23.40
2019-06-07T18:44:42.817Z,23.30
2019-06-07T18:47:51.396Z,23.20
2019-06-07T18:50:59.501Z,23.10
2019-06-07T18:54:07.008Z,23.10
2019-06-07T18:57:17.577Z,23.00
2019-06-07T19:00:27.594Z,22.90
2019-06-07T19:03:35.200Z,22.80
2019-06-07T19:06:42.766Z,22.80
2019-06-07T19:09:50.573Z,22.70
2019-06-07T19:13:00.303Z,22.70
2019-06-07T19:16:07.219Z,22.60
2019-06-07T19:19:14.675Z,22.50
2019-06-07T19:22:22.213Z,22.40
2019-06-07T19:25:29.864Z,22.40
2019-06-07T19:28:37.460Z,22.30
2019-06-07T19:31:44.996Z,22.20
2019-06-07T19:34:53.207Z,22.00
2019-06-07T19:38:02.014Z,22.00
2019-06-07T19:41:19.422Z,21.90
2019-06-07T19:44:19.442Z,21.80
2019-06-07T19:47:28.665Z,21.80
2019-06-07T19:50:36.546Z,21.70
2019-06-07T19:53:44.156Z,21.60
2019-06-07T19:56:53.352Z,21.50
2019-06-07T20:00:02.685Z,21.40
2019-06-07T20:03:10.394Z,21.30
2019-06-07T20:06:17.972Z,21.20
2019-06-07T20:09:25.689Z,21.10
2019-06-07T20:12:33.540Z,21.10
2019-06-07T20:15:41.020Z,21.10
2019-06-07T20:18:49.195Z,21.10
2019-06-07T20:21:57.206Z,21.10
2019-06-07T20:25:05.042Z,21.10
2019-06-07T20:28:12.531Z,21.10
2019-06-07T20:31:20.025Z,21.20
2019-06-07T20:34:27.900Z,21.30
2019-06-07T20:37:36.180Z,21.30
2019-06-07T20:40:43.671Z,21.40
2019-06-07T20:43:51.206Z,21.40
2019-06-07T20:46:59.978Z,21.40
2019-06-07T20:50:09.106Z,21.50
2019-06-07T20:53:17.029Z,21.50
2019-06-07T20:56:24.980Z,21.60
2019-06-07T20:59:32.544Z,21.70
2019-06-07T21:02:40.316Z,21.70
2019-06-07T21:05:48.678Z,21.80
2019-06-07T21:08:56.095Z,21.70
2019-06-07T21:12:03.808Z,21.70
2019-06-07T21:15:14.294Z,21.70
2019-06-07T21:18:21.130Z,21.70
2019-06-07T21:21:28.805Z,21.70
2019-06-07T21:24:36.620Z,21.60
2019-06-07T21:27:44.308Z,21.60
2019-06-07T21:30:52.037Z,21.60
2019-06-07T21:33:59.784Z,21.60
2019-06-07T21:37:07.900Z,21.60
2019-06-07T21:40:15.460Z,21.50
2019-06-07T21:43:22.976Z,21.50
2019-06-07T21:46:30.501Z,21.40
2019-06-07T21:49:37.991Z,21.30
2019-06-07T21:52:45.414Z,21.20
2019-06-07T21:55:53.160Z,21.20
2019-06-07T21:59:00.608Z,21.10
2019-06-07T22:02:09.389Z,21.00
2019-06-07T22:05:17.455Z,20.90
2019-06-07T22:08:25.676Z,20.90
2019-06-07T22:11:33.838Z,20.80
2019-06-07T22:14:42.271Z,20.70
2019-06-07T22:17:49.957Z,20.60
2019-06-07T22:20:57.533Z,20.50
2019-06-07T22:24:06.717Z,20.40
2019-06-07T22:27:15.650Z,20.40
2019-06-07T22:30:25.192Z,20.40
2019-06-07T22:33:33.730Z,20.30
2019-06-07T22:36:41.713Z,20.30
2019-06-07T22:39:49.188Z,20.20
2019-06-07T22:42:56.880Z,20.20
2019-06-07T22:46:04.422Z,20.10
2019-06-07T22:49:13.233Z,20.10
2019-06-07T22:52:20.964Z,20.10
2019-06-07T22:55:28.814Z,20.10
2019-06-07T22:58:36.354Z,20.10
2019-06-07T23:01:43.925Z,20.20
2019-06-07T23:04:51.372Z,20.10
2019-06-07T23:07:58.924Z,20.10
2019-06-07T23:11:06.502Z,20.10
2019-06-07T23:14:15.306Z,20.10
2019-06-07T23:17:23.043Z,20.00
2019-06-07T23:20:30.934Z,20.00
2019-06-07T23:23:38.510Z,19.90
2019-06-07T23:26:46.180Z,19.90
2019-06-07T23:29:53.593Z,19.90
2019-06-07T23:33:01.067Z,19.80
2019-06-07T23:36:08.756Z,19.80
2019-06-07T23:39:17.228Z,19.80
2019-06-07T23:42:25.004Z,19.80
2019-06-07T23:45:32.571Z,19.70
2019-06-07T23:48:40.225Z,19.60
2019-06-07T23:51:47.765Z,19.50
2019-06-07T23:54:55.186Z,19.40
2019-06-07T23:58:02.774Z,19.30
